createdAt,value
2018-10-04T00:01:18.356Z,98556.73
2018-10-04T00:03:46.832Z,98560.10
2018-10-04T00:06:15.331Z,98556.73
2018-10-04T00:08:43.802Z,98564.40
2018-10-04T00:11:12.273Z,98566.56
2018-10-04T00:13:40.800Z,98562.27
2018-10-04T00:16:09.281Z,98569.52
2018-10-04T00:18:37.811Z,98568.66
2018-10-04T00:21:06.326Z,98562.27
2018-10-04T00:23:34.851Z,98569.05
2018-10-04T00:26:03.362Z,98565.67
2018-10-04T00:28:31.918Z,98566.95
2018-10-04T00:31:00.424Z,98560.49
2018-10-04T00:33:28.909Z,98570.79
2018-10-04T00:35:57.424Z,98567.37
2018-10-04T00:38:25.917Z,98572.49
2018-10-04T00:40:54.408Z,98563.94
2018-10-04T00:43:22.919Z,98569.94
2018-10-04T00:45:51.438Z,98566.10
2018-10-04T00:48:19.912Z,98569.13
2018-10-04T00:50:48.414Z,98577.67
2018-10-04T00:53:16.898Z,98572.95
2018-10-04T00:55:45.376Z,98569.94
2018-10-04T00:58:13.926Z,98570.79
2018-10-04T01:00:42.437Z,98574.63
2018-10-04T01:03:10.902Z,98571.67
2018-10-04T01:05:39.407Z,98568.23
2018-10-04T01:08:07.904Z,98571.28
2018-10-04T01:10:36.399Z,98569.52
2018-10-04T01:13:04.887Z,98567.37
2018-10-04T01:15:33.362Z,98569.52
2018-10-04T01:18:13.025Z,98569.52
2018-10-04T01:20:41.523Z,98575.05
2018-10-04T01:23:10.008Z,98573.77
2018-10-04T01:25:38.525Z,98574.23
2018-10-04T01:28:06.975Z,98571.61
2018-10-04T01:30:35.477Z,98572.49
2018-10-04T01:33:03.926Z,98570.40
2018-10-04T01:35:32.370Z,98566.56
2018-10-04T01:38:00.820Z,98567.37
2018-10-04T01:40:29.408Z,98566.95
2018-10-04T01:42:57.854Z,98562.27
2018-10-04T01:45:26.303Z,98558.83
2018-10-04T01:47:54.786Z,98562.27
2018-10-04T01:50:23.236Z,98561.84
2018-10-04T01:52:51.682Z,98561.37
2018-10-04T01:55:20.132Z,98558.44
2018-10-04T01:57:48.588Z,98553.32
2018-10-04T02:00:17.063Z,98554.59
2018-10-04T02:02:45.574Z,98555.88
2018-10-04T02:05:14.079Z,98554.59
2018-10-04T02:07:42.604Z,98550.34
2018-10-04T02:10:11.135Z,98553.71
2018-10-04T02:12:39.651Z,98556.66
2018-10-04T02:15:08.251Z,98555.38
2018-10-04T02:17:36.785Z,98561.37
2018-10-04T02:20:05.440Z,98564.83
2018-10-04T02:22:33.927Z,98564.75
2018-10-04T02:25:02.441Z,98565.22
2018-10-04T02:27:30.954Z,98561.77
2018-10-04T02:29:59.440Z,98556.34
2018-10-04T02:32:28.011Z,98556.88
2018-10-04T02:34:56.495Z,98563.77
2018-10-04T02:37:25.053Z,98558.66
2018-10-04T02:39:53.526Z,98553.19
2018-10-04T02:42:22.041Z,98550.63
2018-10-04T02:44:50.558Z,98553.61
2018-10-04T02:47:19.047Z,98554.08
2018-10-04T02:49:47.532Z,98560.08
2018-10-04T02:52:16.029Z,98561.74
2018-10-04T02:54:49.875Z,98560.93
2018-10-04T02:57:18.361Z,98560.15
2018-10-04T02:59:46.852Z,98558.45
2018-10-04T03:02:15.380Z,98558.80
2018-10-04T03:04:43.856Z,98558.30
2018-10-04T03:07:12.372Z,98562.13
2018-10-04T03:09:40.865Z,98553.19
2018-10-04T03:12:09.342Z,98550.56
2018-10-04T03:14:37.815Z,98559.11
2018-10-04T03:17:06.302Z,98552.27
2018-10-04T03:19:34.790Z,98550.63
2018-10-04T03:22:03.284Z,98551.84
2018-10-04T03:24:31.761Z,98544.59
2018-10-04T03:27:00.255Z,98545.87
2018-10-04T03:29:28.786Z,98546.27
2018-10-04T03:31:57.293Z,98552.72
2018-10-04T03:34:25.788Z,98546.27
2018-10-04T03:36:54.311Z,98547.93
2018-10-04T03:39:22.823Z,98550.98
2018-10-04T03:41:51.297Z,98545.37
2018-10-04T03:44:19.796Z,98547.93
2018-10-04T03:46:48.320Z,98545.37
2018-10-04T03:49:16.867Z,98545.37
2018-10-04T03:51:45.396Z,98544.52
2018-10-04T03:54:13.879Z,98541.55
2018-10-04T03:56:42.349Z,98547.55
2018-10-04T03:59:10.912Z,98542.44
2018-10-04T04:01:39.521Z,98543.71
2018-10-04T04:04:08.151Z,98541.55
2018-10-04T04:06:37.071Z,98544.09
2018-10-04T04:09:08.256Z,98542.82
2018-10-04T04:11:36.747Z,98541.55
2018-10-04T04:14:05.400Z,98543.71
2018-10-04T04:16:33.887Z,98543.25
2018-10-04T04:19:02.389Z,98542.82
2018-10-04T04:21:30.874Z,98538.13
2018-10-04T04:23:59.359Z,98543.25
2018-10-04T04:26:27.860Z,98541.89
2018-10-04T04:28:56.375Z,98537.17
2018-10-04T04:31:24.861Z,98540.20
2018-10-04T04:33:53.353Z,98544.02
2018-10-04T04:36:21.868Z,98540.20
2018-10-04T04:38:50.346Z,98541.47
2018-10-04T04:41:18.878Z,98534.23
2018-10-04T04:43:47.376Z,98536.36
2018-10-04T04:46:15.861Z,98542.36
2018-10-04T04:48:44.362Z,98539.80
2018-10-04T04:51:12.860Z,98544.91
2018-10-04T04:53:42.533Z,98549.14
2018-10-04T04:56:11.500Z,98555.67
2018-10-04T04:58:40.000Z,98554.39
2018-10-04T05:01:08.507Z,98556.56
2018-10-04T05:03:37.032Z,98556.95
2018-10-04T05:06:05.605Z,98560.39
2018-10-04T05:08:34.122Z,98558.72
2018-10-04T05:11:02.591Z,98556.41
2018-10-04T05:13:31.080Z,98564.97
2018-10-04T05:15:59.606Z,98563.69
2018-10-04T05:18:28.096Z,98567.10
2018-10-04T05:20:56.577Z,98565.75
2018-10-04T05:23:25.101Z,98566.17
2018-10-04T05:25:53.608Z,98561.13
2018-10-04T05:28:22.118Z,98557.69
2018-10-04T05:30:50.607Z,98561.92
2018-10-04T05:33:19.097Z,98560.25
2018-10-04T05:35:47.579Z,98559.86
2018-10-04T05:38:16.060Z,98561.92
2018-10-04T05:40:44.562Z,98562.80
2018-10-04T05:43:13.035Z,98556.80
2018-10-04T05:45:41.537Z,98565.75
2018-10-04T05:48:10.028Z,98558.50
2018-10-04T05:50:38.517Z,98561.92
2018-10-04T05:53:07.033Z,98563.62
2018-10-04T05:55:35.555Z,98573.42
2018-10-04T05:58:04.074Z,98576.86
2018-10-04T06:00:35.083Z,98575.13
2018-10-04T06:03:03.905Z,98579.03
2018-10-04T06:05:32.437Z,98577.75
2018-10-04T06:08:01.222Z,98582.86
2018-10-04T06:10:30.027Z,98587.47
2018-10-04T06:12:58.510Z,98584.53
2018-10-04T06:15:27.108Z,98591.30
2018-10-04T06:17:55.569Z,98593.01
2018-10-04T06:20:24.300Z,98590.92
2018-10-04T06:22:52.794Z,98596.03
2018-10-04T06:25:21.266Z,98594.75
2018-10-04T06:27:49.770Z,98594.75
2018-10-04T06:30:18.247Z,98598.97
2018-10-04T06:32:46.741Z,98600.25
2018-10-04T06:35:15.288Z,98599.55
2018-10-04T06:37:43.773Z,98606.72
2018-10-04T06:40:12.277Z,98609.70
2018-10-04T06:42:40.763Z,98617.36
2018-10-04T06:45:09.246Z,98619.92
2018-10-04T06:47:37.725Z,98619.50
2018-10-04T06:50:06.372Z,98618.64
2018-10-04T06:52:34.947Z,98620.70
2018-10-04T06:55:03.456Z,98623.25
2018-10-04T06:57:31.920Z,98624.14
2018-10-04T07:00:00.402Z,98627.59
2018-10-04T07:02:28.919Z,98625.42
2018-10-04T07:04:57.390Z,98632.20
2018-10-04T07:07:25.864Z,98625.81
2018-10-04T07:09:54.390Z,98627.59
2018-10-04T07:12:22.836Z,98621.98
2018-10-04T07:14:51.324Z,98642.84
2018-10-04T07:17:19.838Z,98633.02
2018-10-04T07:19:48.300Z,98631.34
2018-10-04T07:22:16.795Z,98630.92
2018-10-04T07:24:45.268Z,98636.38
2018-10-04T07:27:13.753Z,98632.13
2018-10-04T07:29:42.254Z,98629.11
2018-10-04T07:32:10.747Z,98636.38
2018-10-04T07:34:39.270Z,98633.83
2018-10-04T07:37:07.810Z,98639.33
2018-10-04T07:39:36.263Z,98635.11
2018-10-04T07:42:04.858Z,98636.38
2018-10-04T07:44:33.256Z,98615.69
2018-10-04T07:47:01.750Z,98643.63
2018-10-04T07:49:30.222Z,98642.77
2018-10-04T07:51:58.726Z,98648.27
2018-10-04T07:54:27.203Z,98645.33
2018-10-04T07:56:55.715Z,98645.41
2018-10-04T07:59:24.194Z,98641.88
2018-10-04T08:01:52.674Z,98647.45
2018-10-04T08:04:21.151Z,98644.52
2018-10-04T08:06:49.698Z,98650.09
2018-10-04T08:09:18.196Z,98645.41
2018-10-04T08:11:46.681Z,98642.42
2018-10-04T08:14:15.167Z,98646.25
2018-10-04T08:16:43.662Z,98651.37
2018-10-04T08:19:12.170Z,98648.42
2018-10-04T08:21:40.714Z,98650.09
2018-10-04T08:24:09.200Z,98647.07
2018-10-04T08:26:37.705Z,98645.87
2018-10-04T08:29:06.394Z,98650.52
2018-10-04T08:31:34.963Z,98646.68
2018-10-04T08:34:03.442Z,98646.25
2018-10-04T08:36:31.953Z,98645.41
2018-10-04T08:39:00.441Z,98636.84
2018-10-04T08:41:28.951Z,98644.98
2018-10-04T08:43:57.463Z,98639.02
2018-10-04T08:46:25.940Z,98640.29
2018-10-04T08:48:54.414Z,98644.59
2018-10-04T08:51:28.056Z,98637.73
2018-10-04T08:53:56.541Z,98634.29
2018-10-04T08:56:25.031Z,98633.02
2018-10-04T08:58:53.516Z,98639.02
2018-10-04T09:01:22.000Z,98632.20
2018-10-04T09:03:55.686Z,98639.87
2018-10-04T09:06:24.190Z,98629.99
2018-10-04T09:08:52.755Z,98631.73
2018-10-04T09:11:21.282Z,98636.84
2018-10-04T09:13:49.824Z,98633.91
2018-10-04T09:16:18.501Z,98635.18
2018-10-04T09:18:47.588Z,98633.91
2018-10-04T09:21:16.098Z,98634.29
2018-10-04T09:23:44.644Z,98636.45
2018-10-04T09:26:13.157Z,98627.02
2018-10-04T09:28:45.779Z,98632.13
2018-10-04T09:31:19.405Z,98628.72
2018-10-04T09:33:47.877Z,98631.27
2018-10-04T09:36:16.363Z,98625.27
2018-10-04T09:38:45.686Z,98627.02
2018-10-04T09:41:14.176Z,98624.45
2018-10-04T09:43:42.654Z,98622.79
2018-10-04T09:46:11.219Z,98629.99
2018-10-04T09:48:39.809Z,98624.06
2018-10-04T09:51:13.621Z,98626.63
2018-10-04T09:53:47.344Z,98625.34
2018-10-04T09:56:21.015Z,98615.94
2018-10-04T09:58:49.547Z,98610.40
2018-10-04T10:01:23.319Z,98605.22
2018-10-04T10:03:51.820Z,98598.05
2018-10-04T10:06:20.328Z,98599.72
2018-10-04T10:08:48.806Z,98604.02
2018-10-04T10:11:17.292Z,98600.99
2018-10-04T10:13:45.799Z,98598.91
2018-10-04T10:16:14.505Z,98604.02
2018-10-04T10:18:42.987Z,98597.16
2018-10-04T10:21:11.567Z,98600.60
2018-10-04T10:23:40.035Z,98594.61
2018-10-04T10:26:08.617Z,98598.05
2018-10-04T10:28:37.109Z,98606.57
2018-10-04T10:31:05.597Z,98591.66
2018-10-04T10:33:34.519Z,98590.77
2018-10-04T10:36:03.050Z,98586.94
2018-10-04T10:38:31.562Z,98585.27
2018-10-04T10:41:00.220Z,98577.98
2018-10-04T10:43:28.718Z,98579.73
2018-10-04T10:45:57.194Z,98581.83
2018-10-04T10:48:25.672Z,98570.72
2018-10-04T10:50:54.160Z,98568.23
2018-10-04T10:53:22.721Z,98560.10
2018-10-04T10:55:51.290Z,98563.94
2018-10-04T10:58:19.790Z,98564.40
2018-10-04T11:00:48.279Z,98557.55
2018-10-04T11:03:16.769Z,98556.27
2018-10-04T11:05:45.288Z,98548.60
2018-10-04T11:08:13.802Z,98552.05
2018-10-04T11:10:42.293Z,98548.22
2018-10-04T11:13:10.770Z,98540.55
2018-10-04T11:15:39.269Z,98540.55
2018-10-04T11:18:07.795Z,98541.01
2018-10-04T11:20:36.250Z,98537.17
2018-10-04T11:23:04.767Z,98526.88
2018-10-04T11:25:33.260Z,98524.39
2018-10-04T11:28:01.748Z,98524.39
2018-10-04T11:30:30.256Z,98523.05
2018-10-04T11:32:58.813Z,98525.99
2018-10-04T11:35:27.315Z,98519.22
2018-10-04T11:37:55.858Z,98518.75
2018-10-04T11:40:24.344Z,98515.84
2018-10-04T11:42:55.306Z,98508.11
2018-10-04T11:45:28.189Z,98506.90
2018-10-04T11:47:56.733Z,98512.44
2018-10-04T11:50:27.000Z,98506.05
2018-10-04T11:52:55.475Z,98507.32
2018-10-04T11:55:24.048Z,98500.44
2018-10-04T11:57:52.566Z,98498.77
2018-10-04T12:00:22.530Z,98500.51
2018-10-04T12:02:52.971Z,98497.09
2018-10-04T12:05:21.523Z,98491.10
2018-10-04T12:07:50.027Z,98485.11
2018-10-04T12:10:18.533Z,98493.27
2018-10-04T12:12:47.140Z,98487.27
2018-10-04T12:15:15.618Z,98480.88
2018-10-04T12:17:44.312Z,98480.88
2018-10-04T12:20:12.807Z,98477.05
2018-10-04T12:22:41.279Z,98480.48
2018-10-04T12:25:09.904Z,98474.48
2018-10-04T12:27:38.335Z,98474.95
2018-10-04T12:30:06.842Z,98468.98
2018-10-04T12:32:35.406Z,98463.88
2018-10-04T12:35:04.187Z,98463.88
2018-10-04T12:37:32.813Z,98463.45
2018-10-04T12:40:01.453Z,98466.44
2018-10-04T12:42:29.929Z,98461.32
2018-10-04T12:44:58.392Z,98461.32
2018-10-04T12:47:26.867Z,98451.95
2018-10-04T12:49:55.350Z,98447.27
2018-10-04T12:52:23.847Z,98449.82
2018-10-04T12:54:52.351Z,98450.28
2018-10-04T12:57:21.712Z,98442.16
2018-10-04T12:59:50.635Z,98436.16
2018-10-04T13:02:19.112Z,98442.55
2018-10-04T13:04:47.599Z,98441.66
2018-10-04T13:07:16.130Z,98445.10
2018-10-04T13:12:12.450Z,98445.56
2018-10-04T13:14:40.944Z,98443.44
2018-10-04T13:17:09.570Z,98442.08
2018-10-04T13:19:38.480Z,98437.83
2018-10-04T13:22:06.992Z,98436.55
2018-10-04T13:24:35.543Z,98444.28
2018-10-04T13:27:04.061Z,98427.14
2018-10-04T13:29:32.755Z,98433.21
2018-10-04T13:32:01.271Z,98435.27
2018-10-04T13:34:29.966Z,98431.44
2018-10-04T13:36:58.513Z,98425.94
2018-10-04T13:39:26.978Z,98422.56
2018-10-04T13:41:55.455Z,98423.84
2018-10-04T13:44:23.935Z,98420.44
2018-10-04T13:46:52.535Z,98412.77
2018-10-04T13:49:21.008Z,98416.60
2018-10-04T13:51:49.537Z,98416.60
2018-10-04T13:54:18.036Z,98414.50
2018-10-04T13:56:46.535Z,98405.56
2018-10-04T13:59:15.118Z,98409.39
2018-10-04T14:01:43.565Z,98406.45
2018-10-04T14:04:12.067Z,98405.17
2018-10-04T14:06:40.562Z,98397.50
2018-10-04T14:09:09.137Z,98395.34
2018-10-04T14:11:37.619Z,98394.95
2018-10-04T14:14:06.233Z,98394.52
2018-10-04T14:16:34.722Z,98393.67
2018-10-04T14:19:03.299Z,98392.78
2018-10-04T14:21:31.811Z,98393.67
2018-10-04T14:24:00.287Z,98385.51
2018-10-04T14:26:28.771Z,98383.45
2018-10-04T14:28:57.257Z,98376.17
2018-10-04T14:31:25.738Z,98370.67
2018-10-04T14:33:54.456Z,98376.17
2018-10-04T14:36:22.946Z,98369.39
2018-10-04T14:38:51.420Z,98367.62
2018-10-04T14:41:19.886Z,98368.50
2018-10-04T14:43:48.382Z,98360.84
2018-10-04T14:46:16.835Z,98356.55
2018-10-04T14:48:45.308Z,98357.01
2018-10-04T14:51:13.910Z,98358.28
2018-10-04T14:53:42.383Z,98355.33
2018-10-04T14:56:10.907Z,98353.99
2018-10-04T14:58:39.383Z,98356.61
2018-10-04T15:01:07.860Z,98351.89
2018-10-04T15:03:36.331Z,98352.72
2018-10-04T15:06:04.808Z,98347.17
2018-10-04T15:08:33.286Z,98350.16
2018-10-04T15:11:01.745Z,98150.39
2018-10-04T15:13:30.231Z,98350.23
2018-10-04T15:15:58.740Z,98351.01
2018-10-04T15:18:27.207Z,98348.88
2018-10-04T15:20:55.687Z,98349.73
2018-10-04T15:23:24.203Z,98348.06
2018-10-04T15:25:52.679Z,98344.62
2018-10-04T15:28:21.175Z,98341.21
2018-10-04T15:30:49.991Z,98330.17
2018-10-04T15:33:18.460Z,98290.73
2018-10-04T15:35:46.925Z,98326.73
2018-10-04T15:38:15.407Z,98325.45
2018-10-04T15:40:43.892Z,98328.01
2018-10-04T15:43:12.392Z,98325.45
2018-10-04T15:45:40.903Z,98319.48
2018-10-04T15:48:09.400Z,98327.16
2018-10-04T15:50:37.884Z,98320.34
2018-10-04T15:53:06.419Z,98316.05
2018-10-04T15:55:34.885Z,98325.45
2018-10-04T15:58:03.354Z,98324.11
2018-10-04T16:00:31.822Z,98319.88
2018-10-04T16:03:00.347Z,98322.05
2018-10-04T16:05:28.827Z,98324.60
2018-10-04T16:07:57.326Z,98323.78
2018-10-04T16:10:25.886Z,98325.88
2018-10-04T16:12:54.297Z,98319.48
2018-10-04T16:15:26.016Z,98317.79
2018-10-04T16:17:54.497Z,98321.69
2018-10-04T16:20:22.995Z,98313.95
2018-10-04T16:22:51.467Z,98322.11
2018-10-04T16:25:20.002Z,98317.39
2018-10-04T16:27:49.393Z,98313.11
2018-10-04T16:30:18.698Z,98314.38
2018-10-04T16:32:47.161Z,98315.66
2018-10-04T16:35:15.639Z,98313.95
2018-10-04T16:37:44.445Z,98310.13
2018-10-04T16:40:13.934Z,98311.40
2018-10-04T16:42:42.823Z,98312.67
2018-10-04T16:45:11.310Z,98310.55
2018-10-04T16:47:40.202Z,98304.16
2018-10-04T16:50:09.295Z,98311.47
2018-10-04T16:52:37.977Z,98307.17
2018-10-04T16:55:06.677Z,98308.91
2018-10-04T16:57:35.174Z,98313.17
2018-10-04T17:00:03.663Z,98305.89
2018-10-04T17:02:32.135Z,98308.84
2018-10-04T17:05:00.628Z,98313.56
2018-10-04T17:07:29.091Z,98317.00
2018-10-04T17:09:57.611Z,98316.11
2018-10-04T17:12:26.156Z,98316.11
2018-10-04T17:14:54.747Z,98316.11
2018-10-04T17:17:23.523Z,98319.06
2018-10-04T17:19:52.004Z,98320.34
2018-10-04T17:22:20.518Z,98321.23
2018-10-04T17:24:48.965Z,98323.33
2018-10-04T17:27:17.453Z,98328.50
2018-10-04T17:29:45.934Z,98323.33
2018-10-04T17:32:14.411Z,98320.34
2018-10-04T17:34:42.916Z,98326.73
2018-10-04T17:37:11.393Z,98330.17
2018-10-04T17:39:39.880Z,98323.72
2018-10-04T17:42:08.417Z,98325.45
2018-10-04T17:44:36.988Z,98318.61
2018-10-04T17:47:05.564Z,98319.00
2018-10-04T17:49:34.059Z,98317.27
2018-10-04T17:52:02.530Z,98321.55
2018-10-04T17:54:31.019Z,98327.09
2018-10-04T17:56:59.540Z,98326.20
2018-10-04T17:59:28.020Z,98321.98
2018-10-04T18:01:56.583Z,98333.48
2018-10-04T18:04:25.147Z,98329.64
2018-10-04T18:06:53.624Z,98332.59
2018-10-04T18:09:22.088Z,98334.33
2018-10-04T18:11:50.575Z,98330.03
2018-10-04T18:14:19.056Z,98329.64
2018-10-04T18:16:47.559Z,98330.03
2018-10-04T18:21:43.498Z,98326.59
2018-10-04T18:24:12.006Z,98330.43
2018-10-04T18:26:40.486Z,98329.55
2018-10-04T18:29:09.026Z,98334.66
2018-10-04T18:31:37.514Z,98330.43
2018-10-04T18:34:06.020Z,98325.71
2018-10-04T18:36:34.510Z,98328.76
2018-10-04T18:39:03.110Z,98323.55
2018-10-04T18:41:31.560Z,98323.16
2018-10-04T18:44:00.064Z,98303.91
2018-10-04T18:46:28.561Z,98323.55
2018-10-04T18:48:57.043Z,98322.77
2018-10-04T18:51:25.539Z,98327.88
2018-10-04T18:53:54.041Z,98323.65
2018-10-04T18:56:22.510Z,98320.59
2018-10-04T18:58:50.996Z,98320.59
2018-10-04T19:03:46.933Z,98316.77
2018-10-04T19:06:15.434Z,98312.94
2018-10-04T19:08:43.940Z,98312.94
2018-10-04T19:11:12.527Z,98310.38
2018-10-04T19:13:41.004Z,98312.94
2018-10-04T19:16:09.487Z,98316.77
2018-10-04T19:18:37.989Z,98309.10
2018-10-04T19:21:06.987Z,98314.60
2018-10-04T19:23:35.740Z,98315.48
2018-10-04T19:26:04.224Z,98312.55
2018-10-04T19:28:32.716Z,98313.33
2018-10-04T19:31:01.218Z,98314.21
2018-10-04T19:33:29.698Z,98317.66
2018-10-04T19:35:58.185Z,98319.72
2018-10-04T19:38:26.695Z,98318.93
2018-10-04T19:40:55.195Z,98322.27
2018-10-04T19:43:23.676Z,98318.05
2018-10-04T19:45:52.239Z,98318.05
2018-10-04T19:48:20.665Z,98318.05
2018-10-04T19:50:49.157Z,98322.27
2018-10-04T19:53:17.647Z,98316.37
2018-10-04T19:55:46.191Z,98317.55
2018-10-04T19:58:14.685Z,98320.20
2018-10-04T20:00:43.181Z,98315.48
2018-10-04T20:03:11.684Z,98314.60
2018-10-04T20:05:40.636Z,98318.44
2018-10-04T20:08:09.111Z,98313.33
2018-10-04T20:10:37.600Z,98311.66
2018-10-04T20:13:06.129Z,98306.94
2018-10-04T20:15:34.624Z,98307.43
2018-10-04T20:18:03.166Z,98306.05
2018-10-04T20:20:31.646Z,98306.94
2018-10-04T20:23:00.132Z,98307.43
2018-10-04T20:25:28.641Z,98308.22
2018-10-04T20:27:57.132Z,98314.70
2018-10-04T20:30:25.657Z,98314.38
2018-10-04T20:32:54.178Z,98316.11
2018-10-04T20:35:22.679Z,98313.17
2018-10-04T20:37:51.204Z,98316.19
2018-10-04T20:40:19.702Z,98322.19
2018-10-04T20:42:48.213Z,98326.47
2018-10-04T20:45:16.744Z,98321.82
2018-10-04T20:47:45.280Z,98323.98
2018-10-04T20:50:13.770Z,98322.70
2018-10-04T20:52:42.397Z,98321.89
2018-10-04T20:55:10.896Z,98323.66
2018-10-04T20:57:39.395Z,98314.72
2018-10-04T21:00:08.372Z,98311.73
2018-10-04T21:02:36.858Z,98309.67
2018-10-04T21:05:05.776Z,98307.58
2018-10-04T21:07:34.301Z,98304.13
2018-10-04T21:10:02.782Z,98304.56
2018-10-04T21:12:31.262Z,98299.45
2018-10-04T21:14:59.770Z,98295.61
2018-10-04T21:17:28.262Z,98295.55
2018-10-04T21:19:56.726Z,98297.22
2018-10-04T21:22:25.256Z,98298.49
2018-10-04T21:24:53.979Z,98296.76
2018-10-04T21:27:22.558Z,98297.16
2018-10-04T21:29:51.064Z,98292.37
2018-10-04T21:32:19.535Z,98300.45
2018-10-04T21:34:48.014Z,98299.58
2018-10-04T21:37:16.515Z,98295.34
2018-10-04T21:39:44.990Z,98299.64
2018-10-04T21:42:13.481Z,98299.18
2018-10-04T21:44:41.955Z,98294.92
2018-10-04T21:47:10.470Z,98297.41
2018-10-04T21:49:38.948Z,98303.41
2018-10-04T21:52:07.431Z,98300.39
2018-10-04T21:54:35.936Z,98307.63
2018-10-04T21:57:04.405Z,98300.78
2018-10-04T21:59:32.913Z,98298.63
2018-10-04T22:02:01.408Z,98303.80
2018-10-04T22:04:29.913Z,98300.78
2018-10-04T22:06:58.418Z,98305.01
2018-10-04T22:09:26.911Z,98301.67
2018-10-04T22:11:55.399Z,98297.34
2018-10-04T22:14:23.929Z,98294.79
2018-10-04T22:19:19.876Z,98296.49
2018-10-04T22:21:48.404Z,98296.49
2018-10-04T22:24:16.961Z,98292.66
2018-10-04T22:26:45.464Z,98296.49
2018-10-04T22:29:13.962Z,98292.66
2018-10-04T22:31:42.451Z,98290.11
2018-10-04T22:34:10.991Z,98292.16
2018-10-04T22:36:39.430Z,98287.55
2018-10-04T22:39:07.973Z,98289.67
2018-10-04T22:41:36.443Z,98287.55
2018-10-04T22:44:04.941Z,98284.99
2018-10-04T22:46:33.435Z,98274.28
2018-10-04T22:49:01.928Z,98275.48
2018-10-04T22:51:30.444Z,98280.27
2018-10-04T22:53:58.938Z,98275.88
2018-10-04T22:56:27.688Z,98275.09
2018-10-04T22:58:56.177Z,98280.11
2018-10-04T23:01:24.662Z,98280.99
2018-10-04T23:03:53.160Z,98284.04
2018-10-04T23:06:21.656Z,98277.95
2018-10-04T23:08:50.148Z,98283.55
2018-10-04T23:11:18.642Z,98274.60
2018-10-04T23:13:47.235Z,98276.77
2018-10-04T23:16:15.723Z,98275.09
2018-10-04T23:18:44.190Z,98281.48
2018-10-04T23:21:12.685Z,98275.09
2018-10-04T23:23:41.182Z,98275.98
2018-10-04T23:26:09.688Z,98281.48
2018-10-04T23:28:38.180Z,98276.83
2018-10-04T23:31:07.131Z,98286.66
2018-10-04T23:33:35.663Z,98287.48
2018-10-04T23:36:04.157Z,98288.76
2018-10-04T23:38:32.651Z,98290.50
2018-10-04T23:41:01.142Z,98289.16
2018-10-04T23:43:29.630Z,98286.59
2018-10-04T23:45:58.107Z,98294.66
2018-10-04T23:48:26.630Z,98298.48
2018-10-04T23:50:55.115Z,98297.60
2018-10-04T23:53:23.607Z,98299.38
2018-10-04T23:55:52.125Z,98301.54
2018-10-04T23:58:25.826Z,98290.82
